Time;durP1;ratioP1;P1;durP2;ratioP2;P2;SDS_P1;SDS_P2;PMS_P1;PMS_P2;Temp;Humidity;BMP_temperature;BMP_pressure;BME280_temperature;BME280_humidity;BME280_pressure;Samples;Min_cycle;Max_cycle;Signal;HPM_P1;HPM_P2
2023/11/06 00:01:29;;;;;;;683.08;345.70;;;;;;;;;;5016183;28;20081;-55
2023/11/06 00:03:54;;;;;;;764.05;356.65;;;;;;;;;;5017586;28;20033;-55
2023/11/06 00:06:20;;;;;;;810.97;363.90;;;;;;;;;;5014356;28;20041;-55
2023/11/06 00:08:46;;;;;;;738.15;354.13;;;;;;;;;;5015975;28;20116;-55
2023/11/06 00:11:11;;;;;;;767.15;354.35;;;;;;;;;;5014939;28;20160;-55
2023/11/06 00:13:36;;;;;;;716.47;356.42;;;;;;;;;;5016133;28;20057;-55
2023/11/06 00:16:02;;;;;;;746.85;393.75;;;;;;;;;;5015047;28;20405;-55
2023/11/06 00:18:29;;;;;;;724.03;357.45;;;;;;;;;;5014167;28;20129;-55
2023/11/06 00:20:56;;;;;;;652.53;348.73;;;;;;;;;;5015108;28;20148;-55
2023/11/06 00:23:21;;;;;;;831.30;366.80;;;;;;;;;;5013423;28;20119;-56
2023/11/06 00:25:47;;;;;;;723.22;353.25;;;;;;;;;;5015462;28;20493;-55
2023/11/06 00:28:12;;;;;;;696.80;353.17;;;;;;;;;;5016162;28;20025;-55
2023/11/06 00:30:37;;;;;;;651.47;351.20;;;;;;;;;;5017120;28;20452;-55
2023/11/06 00:33:02;;;;;;;719.65;368.73;;;;;;;;;;5016706;28;20025;-55
2023/11/06 00:35:28;;;;;;;674.00;354.52;;;;;;;;;;5015027;28;20128;-55
2023/11/06 00:37:53;;;;;;;720.87;360.10;;;;;;;;;;5014462;28;20026;-55
2023/11/06 00:40:18;;;;;;;822.72;368.05;;;;;;;;;;5014248;28;20284;-55
2023/11/06 00:42:43;;;;;;;687.28;355.05;;;;;;;;;;5016889;28;20036;-55
2023/11/06 00:45:09;;;;;;;830.60;372.25;;;;;;;;;;5013932;28;20025;-55
2023/11/06 00:47:34;;;;;;;684.97;359.30;;;;;;;;;;5016080;28;20414;-55
2023/11/06 00:49:59;;;;;;;668.80;356.63;;;;;;;;;;5016665;28;20034;-55
2023/11/06 00:52:24;;;;;;;680.25;358.83;;;;;;;;;;5013629;28;20056;-56
2023/11/06 00:54:50;;;;;;;659.28;355.00;;;;;;;;;;5015418;28;20072;-56
2023/11/06 00:57:15;;;;;;;803.97;368.47;;;;;;;;;;5013959;28;20048;-55
2023/11/06 00:59:40;;;;;;;733.63;360.48;;;;;;;;;;5016557;28;20360;-55
2023/11/06 01:02:05;;;;;;;693.72;360.55;;;;;;;;;;5012463;28;20029;-56
2023/11/06 01:04:31;;;;;;;648.40;358.90;;;;;;;;;;5015984;28;20465;-55
2023/11/06 01:06:57;;;;;;;765.65;368.52;;;;;;;;;;5015822;28;20033;-56
2023/11/06 01:09:22;;;;;;;810.67;369.83;;;;;;;;;;5012680;28;20029;-55
2023/11/06 01:11:48;;;;;;;680.42;358.92;;;;;;;;;;5015426;28;20044;-55
2023/11/06 01:14:13;;;;;;;902.25;378.40;;;;;;;;;;5014003;28;20036;-55
2023/11/06 01:16:38;;;;;;;680.40;363.23;;;;;;;;;;5015716;28;20046;-55
2023/11/06 01:19:04;;;;;;;642.95;353.65;;;;;;;;;;5016468;28;20025;-58
2023/11/06 01:21:31;;;;;;;726.42;369.92;;;;;;;;;;5011263;28;20376;-55
2023/11/06 01:23:57;;;;;;;673.67;356.83;;;;;;;;;;5016057;28;20033;-56
2023/11/06 01:26:22;;;;;;;819.83;369.83;;;;;;;;;;5013736;28;20041;-55
2023/11/06 01:28:47;;;;;;;716.55;359.70;;;;;;;;;;5016891;28;20017;-55
2023/11/06 01:31:13;;;;;;;826.63;381.08;;;;;;;;;;5015117;28;20226;-56
2023/11/06 01:33:38;;;;;;;659.33;349.73;;;;;;;;;;5016105;28;20037;-57
2023/11/06 01:36:04;;;;;;;677.05;349.42;;;;;;;;;;5015441;28;20357;-55
2023/11/06 01:38:30;;;;;;;664.35;350.80;;;;;;;;;;5015956;28;20510;-56
2023/11/06 01:40:56;;;;;;;647.83;350.33;;;;;;;;;;5015791;28;20528;-57
2023/11/06 01:43:23;;;;;;;739.33;354.23;;;;;;;;;;5015651;28;20056;-55
2023/11/06 01:45:49;;;;;;;660.60;358.58;;;;;;;;;;5014865;28;20145;-56
2023/11/06 01:48:14;;;;;;;755.58;362.70;;;;;;;;;;5014895;28;20123;-55
2023/11/06 01:50:39;;;;;;;657.00;354.33;;;;;;;;;;5016771;28;20034;-55
2023/11/06 01:53:06;;;;;;;661.97;358.88;;;;;;;;;;5016439;28;20044;-55
2023/11/06 01:55:32;;;;;;;704.83;361.63;;;;;;;;;;5014184;28;20037;-55
2023/11/06 01:57:57;;;;;;;655.17;359.20;;;;;;;;;;5013452;28;20017;-55
2023/11/06 02:00:23;;;;;;;770.90;372.55;;;;;;;;;;5014757;28;20049;-56
2023/11/06 02:02:49;;;;;;;707.63;351.40;;;;;;;;;;5015125;28;20018;-56
2023/11/06 02:05:15;;;;;;;770.05;351.95;;;;;;;;;;5014869;28;20064;-55
2023/11/06 02:07:40;;;;;;;667.83;350.30;;;;;;;;;;5016027;28;20021;-55
2023/11/06 02:10:06;;;;;;;737.40;359.38;;;;;;;;;;5014389;28;20048;-55
2023/11/06 02:12:32;;;;;;;651.33;350.17;;;;;;;;;;5016882;28;20480;-56
2023/11/06 02:14:57;;;;;;;651.22;348.63;;;;;;;;;;5017345;28;20428;-55
2023/11/06 02:17:25;;;;;;;857.15;361.45;;;;;;;;;;5013781;28;20607;-55
2023/11/06 02:19:51;;;;;;;654.50;342.95;;;;;;;;;;5016193;28;20029;-55
2023/11/06 02:22:19;;;;;;;811.17;354.92;;;;;;;;;;5012843;28;20037;-55
2023/11/06 02:24:48;;;;;;;657.38;347.33;;;;;;;;;;5016144;28;20056;-55
2023/11/06 02:27:14;;;;;;;685.42;352.02;;;;;;;;;;5016411;28;20040;-55
2023/11/06 02:29:39;;;;;;;713.17;355.58;;;;;;;;;;5017349;28;20053;-55
2023/11/06 02:32:04;;;;;;;637.08;347.23;;;;;;;;;;5016084;28;20388;-56
2023/11/06 02:34:30;;;;;;;674.35;353.90;;;;;;;;;;5014653;28;20056;-55
2023/11/06 02:36:55;;;;;;;760.22;364.35;;;;;;;;;;5014719;28;20136;-55
2023/11/06 02:39:20;;;;;;;735.90;361.77;;;;;;;;;;5015826;28;20021;-55
2023/11/06 02:41:46;;;;;;;645.10;353.75;;;;;;;;;;5015474;28;20132;-55
2023/11/06 02:44:11;;;;;;;772.75;361.42;;;;;;;;;;5014872;28;20024;-54
2023/11/06 02:46:37;;;;;;;640.22;354.70;;;;;;;;;;5015780;28;20457;-54
2023/11/06 02:49:02;;;;;;;633.75;353.70;;;;;;;;;;5016628;28;20104;-54
2023/11/06 02:51:28;;;;;;;778.00;369.10;;;;;;;;;;5013990;28;20688;-55
2023/11/06 02:53:53;;;;;;;663.22;370.33;;;;;;;;;;5016200;28;20029;-54
2023/11/06 02:56:18;;;;;;;728.20;363.85;;;;;;;;;;5014703;28;20030;-54
2023/11/06 02:58:43;;;;;;;728.42;362.63;;;;;;;;;;5017174;28;20642;-55
2023/11/06 03:01:09;;;;;;;668.47;350.10;;;;;;;;;;5016158;28;20034;-55
2023/11/06 03:03:34;;;;;;;661.55;351.88;;;;;;;;;;5014563;28;20041;-58
2023/11/06 03:05:59;;;;;;;706.58;351.77;;;;;;;;;;5015747;28;20674;-57
2023/11/06 03:08:24;;;;;;;734.08;361.85;;;;;;;;;;5013640;28;20056;-57
2023/11/06 03:10:50;;;;;;;695.42;359.27;;;;;;;;;;5015781;28;20052;-54
2023/11/06 03:13:15;;;;;;;747.08;364.20;;;;;;;;;;5016156;28;20056;-57
2023/11/06 03:15:40;;;;;;;632.60;350.33;;;;;;;;;;5015106;28;20144;-57
2023/11/06 03:18:06;;;;;;;691.67;358.63;;;;;;;;;;5015301;28;20086;-55
2023/11/06 03:20:31;;;;;;;658.47;356.02;;;;;;;;;;5013024;28;20288;-55
2023/11/06 03:22:56;;;;;;;645.30;353.98;;;;;;;;;;5016597;28;20491;-55
2023/11/06 03:25:22;;;;;;;766.25;363.02;;;;;;;;;;5013521;28;20052;-54
2023/11/06 03:27:48;;;;;;;653.70;358.30;;;;;;;;;;5015401;28;20451;-55
2023/11/06 03:30:13;;;;;;;703.13;363.50;;;;;;;;;;5013947;28;20029;-55
2023/11/06 03:32:39;;;;;;;704.60;360.75;;;;;;;;;;5015179;28;20049;-55
2023/11/06 03:35:05;;;;;;;648.63;353.67;;;;;;;;;;5015847;28;20025;-55
2023/11/06 03:37:31;;;;;;;659.55;357.95;;;;;;;;;;5013590;28;20555;-55
2023/11/06 03:39:57;;;;;;;701.10;362.98;;;;;;;;;;5015649;28;20029;-55
2023/11/06 03:42:22;;;;;;;723.90;363.10;;;;;;;;;;5013282;28;20492;-55
2023/11/06 03:44:47;;;;;;;664.38;359.27;;;;;;;;;;5016751;28;20053;-55
2023/11/06 03:47:13;;;;;;;731.57;366.27;;;;;;;;;;5016659;28;20117;-54
2023/11/06 03:49:39;;;;;;;651.05;355.85;;;;;;;;;;5017621;28;20359;-57
2023/11/06 03:52:10;;;;;;;662.72;354.70;;;;;;;;;;5018680;28;20064;-57
2023/11/06 03:54:35;;;;;;;679.27;360.60;;;;;;;;;;5017758;28;20036;-55
2023/11/06 03:57:01;;;;;;;651.72;358.00;;;;;;;;;;5019247;28;20033;-56
2023/11/06 03:59:26;;;;;;;759.72;367.90;;;;;;;;;;5017752;28;20306;-55
2023/11/06 04:01:51;;;;;;;666.53;359.25;;;;;;;;;;5017307;28;20550;-54
2023/11/06 04:04:17;;;;;;;800.08;369.58;;;;;;;;;;5016387;28;20459;-54
2023/11/06 04:06:42;;;;;;;733.05;361.25;;;;;;;;;;5016535;28;20042;-55
2023/11/06 04:09:08;;;;;;;665.63;351.65;;;;;;;;;;5018759;28;20083;-54
2023/11/06 04:11:33;;;;;;;645.83;352.00;;;;;;;;;;5017122;28;20038;-55
2023/11/06 04:13:58;;;;;;;719.30;363.45;;;;;;;;;;5018512;28;20140;-55
2023/11/06 04:16:24;;;;;;;702.47;359.25;;;;;;;;;;5016903;28;20699;-55
2023/11/06 04:18:50;;;;;;;724.40;386.35;;;;;;;;;;5018750;28;20555;-55
2023/11/06 04:21:17;;;;;;;731.53;363.50;;;;;;;;;;5017101;28;20099;-54
2023/11/06 04:23:42;;;;;;;665.35;359.45;;;;;;;;;;5018836;28;20037;-55
2023/11/06 04:26:07;;;;;;;668.72;360.58;;;;;;;;;;5017022;28;20033;-55
2023/11/06 04:28:32;;;;;;;749.50;370.85;;;;;;;;;;5015302;28;20088;-55
2023/11/06 04:30:59;;;;;;;627.85;360.25;;;;;;;;;;5017155;28;20396;-55
2023/11/06 04:33:24;;;;;;;720.70;365.75;;;;;;;;;;5017559;28;20079;-54
2023/11/06 04:35:49;;;;;;;713.05;366.77;;;;;;;;;;5015514;28;20049;-54
2023/11/06 04:38:14;;;;;;;692.63;363.58;;;;;;;;;;5016406;28;20521;-55
2023/11/06 04:40:40;;;;;;;658.88;362.42;;;;;;;;;;5017289;28;20329;-56
2023/11/06 04:43:05;;;;;;;694.92;366.42;;;;;;;;;;5017821;28;20037;-55
2023/11/06 04:45:30;;;;;;;701.83;371.17;;;;;;;;;;5016332;28;20045;-55
2023/11/06 04:47:55;;;;;;;690.30;365.08;;;;;;;;;;5017927;28;20037;-55
2023/11/06 04:50:21;;;;;;;794.20;377.98;;;;;;;;;;5015732;28;20026;-55
2023/11/06 04:52:46;;;;;;;651.92;361.73;;;;;;;;;;5017284;28;20525;-57
2023/11/06 04:55:11;;;;;;;678.35;359.70;;;;;;;;;;5015912;28;20037;-56
2023/11/06 04:57:36;;;;;;;699.35;363.63;;;;;;;;;;5015334;28;20406;-56
2023/11/06 05:00:03;;;;;;;660.08;353.67;;;;;;;;;;5017263;28;20064;-57
2023/11/06 05:02:28;;;;;;;740.13;360.45;;;;;;;;;;5014770;28;20040;-57
2023/11/06 05:04:54;;;;;;;658.90;364.38;;;;;;;;;;5017774;28;20013;-55
2023/11/06 05:07:19;;;;;;;692.67;365.25;;;;;;;;;;5014953;28;20346;-55
2023/11/06 05:09:45;;;;;;;679.50;364.08;;;;;;;;;;5016245;28;20039;-55
2023/11/06 05:12:10;;;;;;;663.65;363.92;;;;;;;;;;5016732;28;20294;-55
2023/11/06 05:14:36;;;;;;;659.17;362.88;;;;;;;;;;5016532;28;20025;-55
2023/11/06 05:17:01;;;;;;;768.83;376.98;;;;;;;;;;5014769;28;20125;-55
2023/11/06 05:19:26;;;;;;;694.60;368.48;;;;;;;;;;5016079;28;20247;-56
2023/11/06 05:21:52;;;;;;;671.85;364.27;;;;;;;;;;5016378;28;20345;-55
2023/11/06 05:24:19;;;;;;;825.88;377.02;;;;;;;;;;5014902;28;20488;-55
2023/11/06 05:26:45;;;;;;;685.85;363.85;;;;;;;;;;5014295;28;20239;-55
2023/11/06 05:29:10;;;;;;;649.97;362.05;;;;;;;;;;5016953;28;20025;-55
2023/11/06 05:31:35;;;;;;;708.05;370.73;;;;;;;;;;5015525;28;20042;-56
2023/11/06 05:34:00;;;;;;;663.33;361.52;;;;;;;;;;5017092;28;20792;-55
2023/11/06 05:36:28;;;;;;;738.38;371.67;;;;;;;;;;5013954;28;20571;-56
2023/11/06 05:38:54;;;;;;;725.40;373.13;;;;;;;;;;5015522;28;20090;-56
2023/11/06 05:41:20;;;;;;;718.40;370.73;;;;;;;;;;5016198;28;20041;-55
2023/11/06 05:43:45;;;;;;;665.55;365.58;;;;;;;;;;5017808;28;20529;-56
2023/11/06 05:46:10;;;;;;;718.38;369.80;;;;;;;;;;5016209;28;20128;-56
2023/11/06 05:48:36;;;;;;;683.00;368.90;;;;;;;;;;5015886;28;20029;-56
2023/11/06 05:51:01;;;;;;;645.67;359.65;;;;;;;;;;5015664;28;20284;-55
2023/11/06 05:53:27;;;;;;;746.08;371.30;;;;;;;;;;5015321;28;20024;-56
2023/11/06 05:55:53;;;;;;;650.28;368.35;;;;;;;;;;5015324;28;20041;-56
2023/11/06 05:58:18;;;;;;;724.80;368.25;;;;;;;;;;5014106;28;20032;-55
2023/11/06 06:00:45;;;;;;;650.15;364.63;;;;;;;;;;5014711;28;20037;-56
2023/11/06 06:03:11;;;;;;;640.95;339.00;;;;;;;;;;5016645;28;20025;-55
2023/11/06 06:05:36;;;;;;;710.85;348.90;;;;;;;;;;5012967;28;20199;-56
2023/11/06 06:08:02;;;;;;;645.60;330.40;;;;;;;;;;5012401;28;20029;-55
2023/11/06 06:10:27;;;;;;;703.83;343.50;;;;;;;;;;5011522;28;20413;-56
2023/11/06 06:12:52;;;;;;;699.78;345.67;;;;;;;;;;5013907;28;20018;-56
2023/11/06 06:15:17;;;;;;;664.60;343.83;;;;;;;;;;5014267;28;20017;-56
2023/11/06 06:17:43;;;;;;;602.58;336.13;;;;;;;;;;5015904;28;20501;-56
2023/11/06 06:20:12;;;;;;;683.65;346.15;;;;;;;;;;5016194;28;20488;-56
2023/11/06 06:22:38;;;;;;;634.97;339.92;;;;;;;;;;5015317;28;20524;-56
2023/11/06 06:25:03;;;;;;;641.05;341.08;;;;;;;;;;5009678;28;20113;-57
2023/11/06 06:27:28;;;;;;;749.22;355.55;;;;;;;;;;5014741;28;20536;-56
2023/11/06 06:29:54;;;;;;;640.40;343.20;;;;;;;;;;5016320;28;20540;-56
2023/11/06 06:32:19;;;;;;;682.95;350.20;;;;;;;;;;5013497;28;20264;-56
2023/11/06 06:34:45;;;;;;;697.30;349.75;;;;;;;;;;5016212;28;20386;-56
2023/11/06 06:37:10;;;;;;;632.42;348.33;;;;;;;;;;5016137;28;20033;-57
2023/11/06 06:39:35;;;;;;;723.50;352.35;;;;;;;;;;5012426;28;20179;-56
2023/11/06 06:42:00;;;;;;;649.15;352.90;;;;;;;;;;5016062;28;20041;-55
2023/11/06 06:44:25;;;;;;;708.53;355.40;;;;;;;;;;5015145;28;20025;-56
2023/11/06 06:46:51;;;;;;;764.67;383.58;;;;;;;;;;5013801;28;20471;-56
2023/11/06 06:49:17;;;;;;;672.97;349.67;;;;;;;;;;5012032;28;20356;-56
2023/11/06 06:51:42;;;;;;;651.38;348.05;;;;;;;;;;5014466;28;20048;-55
2023/11/06 06:54:07;;;;;;;728.15;355.52;;;;;;;;;;5013793;28;20017;-56
2023/11/06 06:56:32;;;;;;;721.92;356.10;;;;;;;;;;5013998;28;20045;-56
2023/11/06 06:58:58;;;;;;;640.15;331.67;;;;;;;;;;5015306;28;20013;-55
2023/11/06 07:01:23;;;;;;;729.27;341.27;;;;;;;;;;5014585;28;20044;-56
2023/11/06 07:03:48;;;;;;;638.53;322.50;;;;;;;;;;5013846;28;20259;-55
2023/11/06 07:06:15;;;;;;;644.60;322.75;;;;;;;;;;5013178;28;20038;-55
2023/11/06 07:08:41;;;;;;;745.53;331.23;;;;;;;;;;5014300;28;20025;-55
2023/11/06 07:11:06;;;;;;;649.00;325.75;;;;;;;;;;5015823;28;20095;-56
2023/11/06 07:13:31;;;;;;;726.15;325.08;;;;;;;;;;5015064;28;20026;-56
2023/11/06 07:15:57;;;;;;;730.90;336.30;;;;;;;;;;5013058;28;20044;-55
2023/11/06 07:18:23;;;;;;;666.72;336.00;;;;;;;;;;5014633;28;20584;-56
2023/11/06 07:20:49;;;;;;;660.15;335.92;;;;;;;;;;5019122;28;20029;-56
2023/11/06 07:23:14;;;;;;;731.53;342.17;;;;;;;;;;5019187;28;20446;-55
2023/11/06 07:25:39;;;;;;;636.72;331.25;;;;;;;;;;5017696;28;20383;-56
2023/11/06 07:28:05;;;;;;;653.00;331.87;;;;;;;;;;5019180;28;20018;-56
2023/11/06 07:30:30;;;;;;;732.97;342.25;;;;;;;;;;5015570;28;21018;-56
2023/11/06 07:32:55;;;;;;;615.87;289.03;;;;;;;;;;5019302;28;20031;-61
2023/11/06 07:35:21;;;;;;;614.75;280.05;;;;;;;;;;5017290;28;20837;-57
2023/11/06 07:37:46;;;;;;;703.80;298.20;;;;;;;;;;5017485;28;20025;-56
2023/11/06 07:40:13;;;;;;;627.67;305.40;;;;;;;;;;5018265;28;20582;-56
2023/11/06 07:42:39;;;;;;;688.95;301.23;;;;;;;;;;5018412;28;20024;-56
2023/11/06 07:45:04;;;;;;;642.75;285.70;;;;;;;;;;5018949;28;20013;-56
2023/11/06 07:47:30;;;;;;;618.22;291.23;;;;;;;;;;5016146;28;20434;-56
2023/11/06 07:49:55;;;;;;;632.97;290.15;;;;;;;;;;5018310;28;20061;-56
2023/11/06 07:52:21;;;;;;;648.10;288.75;;;;;;;;;;5018519;28;20280;-56
2023/11/06 07:54:46;;;;;;;588.15;280.55;;;;;;;;;;5018810;28;20108;-56
2023/11/06 07:57:11;;;;;;;658.92;290.90;;;;;;;;;;5018156;28;20180;-56
2023/11/06 07:59:40;;;;;;;624.85;283.48;;;;;;;;;;5016719;28;20405;-56
2023/11/06 08:02:10;;;;;;;602.83;280.10;;;;;;;;;;5010652;28;20042;-57
2023/11/06 08:04:35;;;;;;;674.72;278.67;;;;;;;;;;5019413;28;20047;-56
2023/11/06 08:07:00;;;;;;;618.30;278.63;;;;;;;;;;5020532;28;20044;-56
2023/11/06 08:09:28;;;;;;;711.97;298.93;;;;;;;;;;5016474;28;20589;-56
2023/11/06 08:11:53;;;;;;;670.92;310.17;;;;;;;;;;5017273;28;20834;-57
2023/11/06 08:14:18;;;;;;;636.17;311.85;;;;;;;;;;5017854;28;20541;-55
2023/11/06 08:16:43;;;;;;;621.40;309.27;;;;;;;;;;5020737;28;20060;-56
2023/11/06 08:19:09;;;;;;;634.80;312.85;;;;;;;;;;5021293;28;20292;-56
2023/11/06 08:21:34;;;;;;;655.72;318.45;;;;;;;;;;5021329;28;20090;-56
2023/11/06 08:24:00;;;;;;;603.33;318.17;;;;;;;;;;5021959;28;20025;-56
2023/11/06 08:26:25;;;;;;;694.05;337.98;;;;;;;;;;5019049;28;20337;-56
2023/11/06 08:28:50;;;;;;;589.95;320.75;;;;;;;;;;5021015;28;20116;-56
2023/11/06 08:31:18;;;;;;;652.45;333.70;;;;;;;;;;5019597;28;20065;-56
2023/11/06 08:33:43;;;;;;;620.20;336.35;;;;;;;;;;5019417;28;20106;-55
2023/11/06 08:36:09;;;;;;;577.65;307.15;;;;;;;;;;5020523;28;20416;-56
2023/11/06 08:38:34;;;;;;;695.67;328.33;;;;;;;;;;5020445;28;20021;-56
2023/11/06 08:40:59;;;;;;;619.95;325.30;;;;;;;;;;5022870;28;20033;-55
2023/11/06 08:43:25;;;;;;;668.55;339.73;;;;;;;;;;5021384;28;20029;-57
2023/11/06 08:45:51;;;;;;;650.30;321.70;;;;;;;;;;5019747;28;20064;-56
2023/11/06 08:48:16;;;;;;;634.25;325.33;;;;;;;;;;5019951;28;20053;-56
2023/11/06 08:50:41;;;;;;;708.93;335.07;;;;;;;;;;5019139;28;20112;-57
2023/11/06 08:53:06;;;;;;;698.00;339.95;;;;;;;;;;5022040;28;20359;-58
2023/11/06 08:55:32;;;;;;;675.10;321.20;;;;;;;;;;5018451;28;20088;-58
2023/11/06 08:57:57;;;;;;;615.85;307.70;;;;;;;;;;5021545;28;20371;-58
2023/11/06 09:00:22;;;;;;;675.73;303.47;;;;;;;;;;5019995;28;20037;-58
2023/11/06 09:02:47;;;;;;;618.25;315.13;;;;;;;;;;5022024;28;20305;-57
2023/11/06 09:05:13;;;;;;;598.10;290.35;;;;;;;;;;5021153;28;20040;-56
2023/11/06 09:07:38;;;;;;;727.97;314.60;;;;;;;;;;5019665;28;20095;-56
2023/11/06 09:10:04;;;;;;;605.65;309.75;;;;;;;;;;5021128;28;20431;-56
2023/11/06 09:12:30;;;;;;;675.28;300.50;;;;;;;;;;5020225;28;21548;-55
2023/11/06 09:14:57;;;;;;;727.65;359.05;;;;;;;;;;5019808;28;20024;-56
2023/11/06 09:17:23;;;;;;;639.55;318.98;;;;;;;;;;5020270;28;20071;-56
2023/11/06 09:19:48;;;;;;;629.50;322.10;;;;;;;;;;5019815;28;20030;-56
2023/11/06 09:22:14;;;;;;;713.63;328.90;;;;;;;;;;5019432;28;20064;-56
2023/11/06 09:24:39;;;;;;;723.55;332.90;;;;;;;;;;5019785;28;20318;-56
2023/11/06 09:27:05;;;;;;;635.15;333.23;;;;;;;;;;5021240;28;20061;-56
2023/11/06 09:29:30;;;;;;;771.95;342.88;;;;;;;;;;5020153;28;20025;-56
2023/11/06 09:31:55;;;;;;;651.00;322.85;;;;;;;;;;5020702;28;20033;-56
2023/11/06 09:34:21;;;;;;;633.67;292.45;;;;;;;;;;5019493;28;20125;-56
2023/11/06 09:36:46;;;;;;;714.78;314.95;;;;;;;;;;5016778;28;20436;-55
2023/11/06 09:39:11;;;;;;;623.60;310.60;;;;;;;;;;5021367;28;20029;-56
2023/11/06 09:41:37;;;;;;;688.65;330.15;;;;;;;;;;5018745;28;20048;-58
2023/11/06 09:44:03;;;;;;;672.83;311.08;;;;;;;;;;5020626;28;20389;-56
2023/11/06 09:46:30;;;;;;;620.58;281.02;;;;;;;;;;5017291;28;20056;-56
2023/11/06 09:48:57;;;;;;;611.35;285.35;;;;;;;;;;5018684;28;20330;-56
2023/11/06 09:51:23;;;;;;;607.67;267.08;;;;;;;;;;5018616;28;20715;-57
2023/11/06 09:53:50;;;;;;;558.55;269.30;;;;;;;;;;5018283;28;20417;-56
2023/11/06 09:56:16;;;;;;;640.25;275.02;;;;;;;;;;5018747;28;20560;-56
2023/11/06 09:58:42;;;;;;;622.30;287.17;;;;;;;;;;5020641;28;20478;-57
2023/11/06 10:01:07;;;;;;;556.40;276.88;;;;;;;;;;5019204;28;20052;-56
2023/11/06 10:03:36;;;;;;;740.45;291.73;;;;;;;;;;5016844;28;20433;-56
2023/11/06 10:06:02;;;;;;;593.20;285.13;;;;;;;;;;5019266;28;20036;-56
2023/11/06 10:08:29;;;;;;;630.40;294.10;;;;;;;;;;5019252;28;20108;-57
2023/11/06 10:11:01;;;;;;;674.53;295.85;;;;;;;;;;5018276;28;20034;-56
2023/11/06 10:13:30;;;;;;;613.78;272.67;;;;;;;;;;5019048;28;20021;-57
2023/11/06 10:15:56;;;;;;;578.97;266.98;;;;;;;;;;5018855;28;20084;-56
2023/11/06 10:18:23;;;;;;;598.55;263.13;;;;;;;;;;5019683;28;20441;-56
2023/11/06 10:20:50;;;;;;;587.20;260.48;;;;;;;;;;5017795;28;20069;-57
2023/11/06 10:23:22;;;;;;;654.30;285.98;;;;;;;;;;5019646;28;20230;-57
2023/11/06 10:25:47;;;;;;;615.53;287.00;;;;;;;;;;5017957;28;20092;-55
2023/11/06 10:28:17;;;;;;;618.30;288.33;;;;;;;;;;5018843;28;20029;-57
2023/11/06 10:30:46;;;;;;;742.92;287.05;;;;;;;;;;5017948;28;20273;-56
2023/11/06 10:33:14;;;;;;;586.47;282.05;;;;;;;;;;5019133;28;20030;-57
2023/11/06 10:35:39;;;;;;;659.13;285.35;;;;;;;;;;5015497;28;20033;-56
2023/11/06 10:38:05;;;;;;;651.80;299.98;;;;;;;;;;5020190;28;20029;-56
2023/11/06 10:40:34;;;;;;;636.28;305.73;;;;;;;;;;5019352;28;20042;-56
2023/11/06 10:43:03;;;;;;;652.78;293.05;;;;;;;;;;5020016;28;20025;-57
2023/11/06 10:45:29;;;;;;;692.75;300.92;;;;;;;;;;5017752;28;20045;-57
2023/11/06 10:47:56;;;;;;;643.45;300.77;;;;;;;;;;5020186;28;20026;-57
2023/11/06 10:50:23;;;;;;;697.42;310.00;;;;;;;;;;5019207;28;20057;-56
2023/11/06 10:52:54;;;;;;;647.00;316.67;;;;;;;;;;5017808;28;20064;-57
2023/11/06 10:55:20;;;;;;;638.40;299.52;;;;;;;;;;5018305;28;20013;-56
2023/11/06 10:57:48;;;;;;;774.00;323.33;;;;;;;;;;5018143;28;20056;-56
2023/11/06 11:00:19;;;;;;;626.40;289.00;;;;;;;;;;5019406;28;20056;-56
2023/11/06 11:02:51;;;;;;;727.13;290.55;;;;;;;;;;5019305;28;20024;-56
2023/11/06 11:05:23;;;;;;;;;;;;;;;;;;5018543;28;20032;-56
2023/11/06 11:07:48;;;;;;;597.67;292.23;;;;;;;;;;5016647;28;19916;-56
2023/11/06 11:10:17;;;;;;;641.78;285.92;;;;;;;;;;5017537;28;20026;-56
2023/11/06 11:12:43;;;;;;;689.97;300.27;;;;;;;;;;5018532;28;20025;-56
2023/11/06 11:15:09;;;;;;;611.13;292.55;;;;;;;;;;5017511;28;20018;-57
2023/11/06 11:17:35;;;;;;;691.47;309.95;;;;;;;;;;5017334;28;20230;-56
2023/11/06 11:20:05;;;;;;;616.42;304.60;;;;;;;;;;5018598;28;20056;-56
2023/11/06 11:22:34;;;;;;;627.13;281.63;;;;;;;;;;5017812;28;20033;-56
2023/11/06 11:25:04;;;;;;;607.55;285.48;;;;;;;;;;5018633;28;20021;-56
2023/11/06 11:27:30;;;;;;;594.10;277.77;;;;;;;;;;5018394;28;20497;-55
2023/11/06 11:29:56;;;;;;;627.53;288.23;;;;;;;;;;5019201;28;20199;-56
2023/11/06 11:32:22;;;;;;;617.17;286.65;;;;;;;;;;5018675;28;20025;-55
2023/11/06 11:34:47;;;;;;;712.78;283.50;;;;;;;;;;5016769;28;20383;-58
2023/11/06 11:37:31;;;;;;;661.05;269.35;;;;;;;;;;5017745;28;20055;-55
2023/11/06 11:39:58;;;;;;;583.53;270.25;;;;;;;;;;5018714;28;20055;-56
2023/11/06 11:42:23;;;;;;;675.85;279.42;;;;;;;;;;5017455;28;20464;-56
2023/11/06 11:44:50;;;;;;;678.45;285.27;;;;;;;;;;5017735;28;20550;-56
2023/11/06 11:47:15;;;;;;;607.10;276.42;;;;;;;;;;5016987;28;20025;-57
2023/11/06 11:49:43;;;;;;;736.88;297.17;;;;;;;;;;5018082;28;20340;-56
2023/11/06 11:52:09;;;;;;;576.97;274.52;;;;;;;;;;5018919;28;20030;-56
2023/11/06 11:54:37;;;;;;;636.90;283.95;;;;;;;;;;5017480;28;20025;-55
2023/11/06 11:57:02;;;;;;;631.78;285.67;;;;;;;;;;5017139;28;20037;-56
2023/11/06 11:59:29;;;;;;;627.63;285.92;;;;;;;;;;5018886;28;20075;-56
2023/11/06 12:01:54;;;;;;;618.17;274.55;;;;;;;;;;5016175;28;20772;-55
2023/11/06 12:04:20;;;;;;;633.20;283.42;;;;;;;;;;5017932;28;20048;-58
2023/11/06 12:07:07;;;;;;;665.60;288.35;;;;;;;;;;5016048;28;20505;-56
2023/11/06 12:09:46;;;;;;;613.42;281.15;;;;;;;;;;5021039;28;20032;-56
2023/11/06 12:12:16;;;;;;;647.50;283.67;;;;;;;;;;5020705;28;20125;-56
2023/11/06 12:14:41;;;;;;;682.22;279.83;;;;;;;;;;5019626;28;20018;-56
2023/11/06 12:17:06;;;;;;;602.92;292.27;;;;;;;;;;5023104;28;20080;-56
2023/11/06 12:19:44;;;;;;;653.53;306.17;;;;;;;;;;5021410;28;20159;-56
2023/11/06 12:22:13;;;;;;;613.97;289.92;;;;;;;;;;5022156;28;20052;-56
2023/11/06 12:24:46;;;;;;;704.47;293.52;;;;;;;;;;5020751;28;20027;-56
2023/11/06 12:27:11;;;;;;;634.28;289.48;;;;;;;;;;5021852;28;20029;-56
2023/11/06 12:29:36;;;;;;;632.07;279.37;;;;;;;;;;5020613;28;20025;-56
2023/11/06 12:32:17;;;;;;;676.83;287.38;;;;;;;;;;5020118;28;20280;-56
2023/11/06 12:34:42;;;;;;;712.35;291.35;;;;;;;;;;5019730;28;20033;-56
2023/11/06 12:37:07;;;;;;;617.53;273.67;;;;;;;;;;5021673;28;20086;-55
2023/11/06 12:39:34;;;;;;;631.92;269.85;;;;;;;;;;5021062;28;20061;-56
2023/11/06 12:42:00;;;;;;;611.80;277.67;;;;;;;;;;5020278;28;20048;-58
2023/11/06 12:44:38;;;;;;;654.55;277.58;;;;;;;;;;5019770;28;20036;-57
2023/11/06 12:47:04;;;;;;;626.03;291.65;;;;;;;;;;5021108;28;20038;-56
2023/11/06 12:49:47;;;;;;;578.38;256.17;;;;;;;;;;5019790;28;20025;-59
2023/11/06 12:52:15;;;;;;;558.70;264.48;;;;;;;;;;5019544;28;20053;-56
2023/11/06 12:54:40;;;;;;;697.20;285.40;;;;;;;;;;5019259;28;20102;-57
2023/11/06 12:57:10;;;;;;;640.13;282.50;;;;;;;;;;5020393;28;20037;-56
2023/11/06 12:59:35;;;;;;;594.25;289.20;;;;;;;;;;5021682;28;20280;-57
2023/11/06 13:02:00;;;;;;;637.35;285.35;;;;;;;;;;5020194;28;20493;-56
2023/11/06 13:04:26;;;;;;;648.33;296.40;;;;;;;;;;5020734;28;20028;-56
2023/11/06 13:06:52;;;;;;;724.67;309.38;;;;;;;;;;5019490;28;20847;-56
2023/11/06 13:09:18;;;;;;;671.45;277.77;;;;;;;;;;5019106;28;20014;-56
2023/11/06 13:11:43;;;;;;;679.35;294.95;;;;;;;;;;5018608;28;20110;-56
2023/11/06 13:14:08;;;;;;;668.57;305.40;;;;;;;;;;5021083;28;20017;-56
2023/11/06 13:16:37;;;;;;;641.60;291.35;;;;;;;;;;5019664;28;20280;-56
2023/11/06 13:19:03;;;;;;;618.80;297.52;;;;;;;;;;5021543;28;20388;-56
2023/11/06 13:21:32;;;;;;;619.90;292.92;;;;;;;;;;5018990;28;20405;-56
2023/11/06 13:23:57;;;;;;;692.50;305.95;;;;;;;;;;5019950;28;20053;-56
2023/11/06 13:26:22;;;;;;;657.70;306.00;;;;;;;;;;5020278;28;20075;-56
2023/11/06 13:28:51;;;;;;;700.65;308.38;;;;;;;;;;5017300;28;20083;-57
2023/11/06 13:31:16;;;;;;;711.80;312.77;;;;;;;;;;5017756;28;20444;-57
2023/11/06 13:33:44;;;;;;;751.40;316.13;;;;;;;;;;5018074;28;20535;-57
2023/11/06 13:36:12;;;;;;;639.22;284.58;;;;;;;;;;5019030;28;20551;-56
2023/11/06 13:38:38;;;;;;;631.25;288.65;;;;;;;;;;5018864;28;20044;-56
2023/11/06 13:41:08;;;;;;;607.75;284.08;;;;;;;;;;5017708;28;20412;-56
2023/11/06 13:43:34;;;;;;;676.00;293.02;;;;;;;;;;5018748;28;20052;-56
2023/11/06 13:45:59;;;;;;;610.05;286.15;;;;;;;;;;5018589;28;20421;-56
2023/11/06 13:48:24;;;;;;;624.05;291.67;;;;;;;;;;5019009;28;20025;-57